sensor_id;sensor_type;location;lat;lon;timestamp;pressure;altitude;pressure_sealevel;temperature;humidity
55538;BME280;41383;51.418;7.286;2023-07-13T00:02:07;99755.44;;;21.13;47.80
55538;BME280;41383;51.418;7.286;2023-07-13T00:04:32;99752.19;;;21.10;48.02
55538;BME280;41383;51.418;7.286;2023-07-13T00:06:58;99754.22;;;21.01;47.55
55538;BME280;41383;51.418;7.286;2023-07-13T00:09:23;99751.28;;;20.97;47.65
55538;BME280;41383;51.418;7.286;2023-07-13T00:11:54;99756.56;;;21.11;47.58
55538;BME280;41383;51.418;7.286;2023-07-13T00:14:19;99751.09;;;21.03;47.41
55538;BME280;41383;51.418;7.286;2023-07-13T00:16:45;99756.50;;;20.99;47.80
55538;BME280;41383;51.418;7.286;2023-07-13T00:19:12;99762.06;;;20.99;47.71
55538;BME280;41383;51.418;7.286;2023-07-13T00:21:39;99756.31;;;20.95;47.31
55538;BME280;41383;51.418;7.286;2023-07-13T00:24:05;99758.59;;;20.93;47.62
55538;BME280;41383;51.418;7.286;2023-07-13T00:26:31;99755.84;;;20.93;47.55
55538;BME280;41383;51.418;7.286;2023-07-13T00:28:58;99750.28;;;20.93;48.23
55538;BME280;41383;51.418;7.286;2023-07-13T00:31:23;99755.91;;;20.84;48.00
55538;BME280;41383;51.418;7.286;2023-07-13T00:33:48;99750.50;;;20.97;47.73
55538;BME280;41383;51.418;7.286;2023-07-13T00:36:14;99748.59;;;20.80;47.93
55538;BME280;41383;51.418;7.286;2023-07-13T00:38:40;99748.81;;;20.74;48.13
55538;BME280;41383;51.418;7.286;2023-07-13T00:41:05;99749.66;;;20.66;48.06
55538;BME280;41383;51.418;7.286;2023-07-13T00:43:31;99747.03;;;20.70;48.48
55538;BME280;41383;51.418;7.286;2023-07-13T00:48:25;99749.66;;;20.66;48.38
55538;BME280;41383;51.418;7.286;2023-07-13T00:50:53;99753.44;;;20.52;48.47
55538;BME280;41383;51.418;7.286;2023-07-13T00:53:20;99746.63;;;20.50;48.36
55538;BME280;41383;51.418;7.286;2023-07-13T00:55:47;99751.94;;;20.25;48.34
55538;BME280;41383;51.418;7.286;2023-07-13T00:58:14;99745.44;;;20.21;48.95
55538;BME280;41383;51.418;7.286;2023-07-13T01:00:40;99746.69;;;20.32;49.04
55538;BME280;41383;51.418;7.286;2023-07-13T01:03:06;99746.03;;;20.35;49.09
55538;BME280;41383;51.418;7.286;2023-07-13T01:05:33;99746.53;;;20.37;49.20
55538;BME280;41383;51.418;7.286;2023-07-13T01:07:59;99743.91;;;20.41;49.00
55538;BME280;41383;51.418;7.286;2023-07-13T01:10:26;99736.00;;;20.22;49.04
55538;BME280;41383;51.418;7.286;2023-07-13T01:12:52;99737.25;;;20.33;48.86
55538;BME280;41383;51.418;7.286;2023-07-13T01:15:40;99734.06;;;20.52;48.61
55538;BME280;41383;51.418;7.286;2023-07-13T01:18:08;99736.91;;;20.44;48.65
55538;BME280;41383;51.418;7.286;2023-07-13T01:20:34;99742.94;;;20.37;49.32
55538;BME280;41383;51.418;7.286;2023-07-13T01:23:02;99740.50;;;20.35;49.25
55538;BME280;41383;51.418;7.286;2023-07-13T01:25:27;99732.56;;;20.25;49.33
55538;BME280;41383;51.418;7.286;2023-07-13T01:27:53;99736.00;;;20.22;49.40
55538;BME280;41383;51.418;7.286;2023-07-13T01:30:18;99733.53;;;20.29;49.20
55538;BME280;41383;51.418;7.286;2023-07-13T01:32:43;99737.75;;;20.26;49.25
55538;BME280;41383;51.418;7.286;2023-07-13T01:35:09;99733.59;;;20.11;49.05
55538;BME280;41383;51.418;7.286;2023-07-13T01:37:34;99742.38;;;20.04;49.65
55538;BME280;41383;51.418;7.286;2023-07-13T01:40:02;99735.88;;;20.00;49.51
55538;BME280;41383;51.418;7.286;2023-07-13T01:42:28;99740.00;;;19.85;49.38
55538;BME280;41383;51.418;7.286;2023-07-13T01:44:54;99744.19;;;19.91;49.90
55538;BME280;41383;51.418;7.286;2023-07-13T01:47:19;99731.31;;;19.95;50.20
55538;BME280;41383;51.418;7.286;2023-07-13T01:49:44;99738.66;;;19.91;50.03
55538;BME280;41383;51.418;7.286;2023-07-13T01:52:11;99737.03;;;19.90;49.80
55538;BME280;41383;51.418;7.286;2023-07-13T01:54:36;99744.19;;;19.91;50.00
55538;BME280;41383;51.418;7.286;2023-07-13T01:57:01;99746.47;;;19.89;50.13
55538;BME280;41383;51.418;7.286;2023-07-13T01:59:28;99748.75;;;19.87;50.13
55538;BME280;41383;51.418;7.286;2023-07-13T02:01:53;99745.97;;;19.87;50.20
55538;BME280;41383;51.418;7.286;2023-07-13T02:04:19;99746.94;;;19.91;50.05
55538;BME280;41383;51.418;7.286;2023-07-13T02:06:44;99749.56;;;19.97;49.92
55538;BME280;41383;51.418;7.286;2023-07-13T02:09:09;99753.34;;;19.83;50.06
55538;BME280;41383;51.418;7.286;2023-07-13T02:11:35;99744.06;;;19.79;50.23
55538;BME280;41383;51.418;7.286;2023-07-13T02:14:01;99745.88;;;19.75;50.31
55538;BME280;41383;51.418;7.286;2023-07-13T02:16:27;99748.47;;;19.62;50.09
55538;BME280;41383;51.418;7.286;2023-07-13T02:18:52;99746.84;;;19.43;50.94
55538;BME280;41383;51.418;7.286;2023-07-13T02:21:18;99741.50;;;19.65;51.08
55538;BME280;41383;51.418;7.286;2023-07-13T02:23:43;99750.91;;;19.64;50.53
55538;BME280;41383;51.418;7.286;2023-07-13T02:26:08;99755.63;;;19.45;51.10
55538;BME280;41383;51.418;7.286;2023-07-13T02:28:34;99749.94;;;19.51;51.10
55538;BME280;41383;51.418;7.286;2023-07-13T02:31:10;99747.34;;;19.36;51.24
55538;BME280;41383;51.418;7.286;2023-07-13T02:33:35;99756.94;;;19.39;51.35
55538;BME280;41383;51.418;7.286;2023-07-13T02:36:01;99754.50;;;19.29;51.78
55538;BME280;41383;51.418;7.286;2023-07-13T02:38:26;99732.56;;;19.23;51.65
55538;BME280;41383;51.418;7.286;2023-07-13T02:40:52;99745.41;;;19.28;51.47
55538;BME280;41383;51.418;7.286;2023-07-13T02:43:17;99747.97;;;19.24;51.57
55538;BME280;41383;51.418;7.286;2023-07-13T02:45:44;99744.56;;;19.10;52.24
55538;BME280;41383;51.418;7.286;2023-07-13T02:48:09;99751.56;;;19.25;51.96
55538;BME280;41383;51.418;7.286;2023-07-13T02:50:34;99754.97;;;19.31;51.98
55538;BME280;41383;51.418;7.286;2023-07-13T02:52:59;99741.97;;;19.22;52.10
55538;BME280;41383;51.418;7.286;2023-07-13T02:55:25;99740.03;;;19.32;52.08
55538;BME280;41383;51.418;7.286;2023-07-13T02:57:50;99745.22;;;19.24;51.87
55538;BME280;41383;51.418;7.286;2023-07-13T03:00:15;99749.94;;;19.15;52.31
55538;BME280;41383;51.418;7.286;2023-07-13T03:02:41;99755.75;;;19.05;52.48
55538;BME280;41383;51.418;7.286;2023-07-13T03:05:07;99750.53;;;18.85;53.14
55538;BME280;41383;51.418;7.286;2023-07-13T03:07:32;99758.44;;;18.69;53.79
55538;BME280;41383;51.418;7.286;2023-07-13T03:09:58;99754.34;;;18.66;53.74
55538;BME280;41383;51.418;7.286;2023-07-13T03:12:24;99756.09;;;18.53;54.46
55538;BME280;41383;51.418;7.286;2023-07-13T03:14:49;99755.81;;;18.64;54.46
55538;BME280;41383;51.418;7.286;2023-07-13T03:17:15;99758.78;;;18.76;54.45
55538;BME280;41383;51.418;7.286;2023-07-13T03:19:40;99755.09;;;18.49;54.76
55538;BME280;41383;51.418;7.286;2023-07-13T03:22:05;99754.97;;;18.63;54.67
55538;BME280;41383;51.418;7.286;2023-07-13T03:24:33;99763.00;;;18.83;54.69
55538;BME280;41383;51.418;7.286;2023-07-13T03:26:58;99761.38;;;18.82;54.42
55538;BME280;41383;51.418;7.286;2023-07-13T03:29:23;99771.63;;;18.81;53.94
55538;BME280;41383;51.418;7.286;2023-07-13T03:31:48;99766.56;;;18.74;54.65
55538;BME280;41383;51.418;7.286;2023-07-13T03:34:14;99765.75;;;18.74;54.74
55538;BME280;41383;51.418;7.286;2023-07-13T03:36:39;99765.13;;;18.77;54.65
55538;BME280;41383;51.418;7.286;2023-07-13T03:39:04;99766.50;;;18.57;55.09
55538;BME280;41383;51.418;7.286;2023-07-13T03:41:33;99767.19;;;18.62;55.18
55538;BME280;41383;51.418;7.286;2023-07-13T03:43:58;99777.38;;;18.53;55.51
55538;BME280;41383;51.418;7.286;2023-07-13T03:46:24;99779.97;;;18.58;55.69
55538;BME280;41383;51.418;7.286;2023-07-13T03:48:49;99785.47;;;18.49;55.82
55538;BME280;41383;51.418;7.286;2023-07-13T03:51:16;99794.34;;;18.37;56.27
55538;BME280;41383;51.418;7.286;2023-07-13T03:53:43;99792.84;;;18.63;55.84
55538;BME280;41383;51.418;7.286;2023-07-13T03:56:09;99795.84;;;18.43;56.44
55538;BME280;41383;51.418;7.286;2023-07-13T03:58:37;99795.72;;;18.58;56.13
55538;BME280;41383;51.418;7.286;2023-07-13T04:01:04;99798.97;;;18.60;56.25
55538;BME280;41383;51.418;7.286;2023-07-13T04:03:31;99804.84;;;18.58;56.45
55538;BME280;41383;51.418;7.286;2023-07-13T04:05:58;99797.72;;;18.66;56.03
55538;BME280;41383;51.418;7.286;2023-07-13T04:08:28;99797.16;;;18.55;56.61
55538;BME280;41383;51.418;7.286;2023-07-13T04:10:54;99793.13;;;18.61;56.22
55538;BME280;41383;51.418;7.286;2023-07-13T04:13:19;99800.72;;;18.47;56.46
55538;BME280;41383;51.418;7.286;2023-07-13T04:15:44;99808.84;;;18.52;57.13
55538;BME280;41383;51.418;7.286;2023-07-13T04:18:09;99805.66;;;18.67;56.43
55538;BME280;41383;51.418;7.286;2023-07-13T04:20:35;99810.03;;;18.60;56.55
55538;BME280;41383;51.418;7.286;2023-07-13T04:23:00;99809.97;;;18.42;57.07
55538;BME280;41383;51.418;7.286;2023-07-13T04:25:26;99808.97;;;18.38;57.46
55538;BME280;41383;51.418;7.286;2023-07-13T04:27:52;99814.13;;;18.30;57.76
55538;BME280;41383;51.418;7.286;2023-07-13T04:30:18;99818.34;;;18.37;57.76
55538;BME280;41383;51.418;7.286;2023-07-13T04:32:43;99818.50;;;18.31;57.80
55538;BME280;41383;51.418;7.286;2023-07-13T04:35:08;99816.75;;;18.36;57.54
55538;BME280;41383;51.418;7.286;2023-07-13T04:37:34;99817.06;;;18.34;57.97
55538;BME280;41383;51.418;7.286;2023-07-13T04:40:00;99819.66;;;18.30;58.18
55538;BME280;41383;51.418;7.286;2023-07-13T04:42:25;99818.78;;;18.53;57.76
55538;BME280;41383;51.418;7.286;2023-07-13T04:44:51;99824.88;;;18.41;58.06
55538;BME280;41383;51.418;7.286;2023-07-13T04:47:17;99824.34;;;18.30;58.54
55538;BME280;41383;51.418;7.286;2023-07-13T04:49:44;99819.25;;;18.23;58.49
55538;BME280;41383;51.418;7.286;2023-07-13T04:52:09;99825.94;;;18.22;59.29
55538;BME280;41383;51.418;7.286;2023-07-13T04:54:35;99828.34;;;18.24;58.62
55538;BME280;41383;51.418;7.286;2023-07-13T04:57:02;99824.16;;;18.26;58.94
55538;BME280;41383;51.418;7.286;2023-07-13T04:59:27;99824.97;;;18.27;58.95
55538;BME280;41383;51.418;7.286;2023-07-13T05:01:53;99828.88;;;18.35;58.77
55538;BME280;41383;51.418;7.286;2023-07-13T05:04:19;99820.66;;;18.43;58.36
55538;BME280;41383;51.418;7.286;2023-07-13T05:06:44;99828.78;;;18.40;58.92
55538;BME280;41383;51.418;7.286;2023-07-13T05:09:09;99822.19;;;18.27;58.69
55538;BME280;41383;51.418;7.286;2023-07-13T05:11:35;99835.13;;;18.49;58.52
55538;BME280;41383;51.418;7.286;2023-07-13T05:14:00;99830.50;;;18.59;58.18
55538;BME280;41383;51.418;7.286;2023-07-13T05:16:26;99835.75;;;18.69;57.88
55538;BME280;41383;51.418;7.286;2023-07-13T05:18:52;99846.38;;;18.53;58.78
55538;BME280;41383;51.418;7.286;2023-07-13T05:21:17;99844.97;;;18.64;58.34
55538;BME280;41383;51.418;7.286;2023-07-13T05:23:42;99844.19;;;18.73;58.42
55538;BME280;41383;51.418;7.286;2023-07-13T05:26:07;99848.72;;;18.69;58.82
55538;BME280;41383;51.418;7.286;2023-07-13T05:28:33;99850.91;;;18.49;59.42
55538;BME280;41383;51.418;7.286;2023-07-13T05:30:58;99850.94;;;18.58;59.43
55538;BME280;41383;51.418;7.286;2023-07-13T05:33:24;99846.13;;;18.72;59.00
55538;BME280;41383;51.418;7.286;2023-07-13T05:35:49;99850.38;;;18.78;58.76
55538;BME280;41383;51.418;7.286;2023-07-13T05:38:15;99854.03;;;18.97;58.68
55538;BME280;41383;51.418;7.286;2023-07-13T05:40:43;99856.63;;;18.93;58.55
55538;BME280;41383;51.418;7.286;2023-07-13T05:43:08;99854.97;;;18.92;58.89
55538;BME280;41383;51.418;7.286;2023-07-13T05:45:33;99861.16;;;18.89;58.90
55538;BME280;41383;51.418;7.286;2023-07-13T05:47:58;99857.03;;;18.77;59.38
55538;BME280;41383;51.418;7.286;2023-07-13T05:50:25;99863.41;;;18.87;59.05
55538;BME280;41383;51.418;7.286;2023-07-13T05:52:50;99867.03;;;18.96;59.36
55538;BME280;41383;51.418;7.286;2023-07-13T05:55:17;99868.28;;;18.90;59.35
55538;BME280;41383;51.418;7.286;2023-07-13T05:57:42;99860.94;;;18.76;59.92
55538;BME280;41383;51.418;7.286;2023-07-13T06:00:08;99870.56;;;18.88;60.07
55538;BME280;41383;51.418;7.286;2023-07-13T06:02:33;99878.34;;;18.86;60.12
55538;BME280;41383;51.418;7.286;2023-07-13T06:04:59;99867.44;;;18.81;60.09
55538;BME280;41383;51.418;7.286;2023-07-13T06:07:24;99869.66;;;19.01;60.03
55538;BME280;41383;51.418;7.286;2023-07-13T06:09:49;99875.50;;;19.09;60.04
55538;BME280;41383;51.418;7.286;2023-07-13T06:12:14;99882.28;;;18.94;60.22
55538;BME280;41383;51.418;7.286;2023-07-13T06:14:40;99882.59;;;18.92;60.74
55538;BME280;41383;51.418;7.286;2023-07-13T06:17:05;99882.44;;;18.88;60.97
55538;BME280;41383;51.418;7.286;2023-07-13T06:19:31;99880.34;;;18.94;61.02
55538;BME280;41383;51.418;7.286;2023-07-13T06:21:56;99881.16;;;18.95;60.91
55538;BME280;41383;51.418;7.286;2023-07-13T06:24:23;99877.06;;;18.92;61.05
55538;BME280;41383;51.418;7.286;2023-07-13T06:26:48;99883.41;;;18.93;60.96
55538;BME280;41383;51.418;7.286;2023-07-13T06:29:14;99886.50;;;18.91;61.40
55538;BME280;41383;51.418;7.286;2023-07-13T06:31:39;99889.63;;;18.98;61.12
55538;BME280;41383;51.418;7.286;2023-07-13T06:34:04;99894.03;;;18.99;61.36
55538;BME280;41383;51.418;7.286;2023-07-13T06:36:29;99888.00;;;19.06;60.98
55538;BME280;41383;51.418;7.286;2023-07-13T06:38:55;99895.13;;;18.89;61.71
55538;BME280;41383;51.418;7.286;2023-07-13T06:41:20;99893.03;;;18.95;61.87
55538;BME280;41383;51.418;7.286;2023-07-13T06:43:47;99900.66;;;18.98;61.46
55538;BME280;41383;51.418;7.286;2023-07-13T06:46:12;99898.13;;;19.11;61.65
55538;BME280;41383;51.418;7.286;2023-07-13T06:48:37;99899.25;;;19.10;61.86
55538;BME280;41383;51.418;7.286;2023-07-13T06:51:03;99902.44;;;19.35;61.24
55538;BME280;41383;51.418;7.286;2023-07-13T06:53:28;99902.59;;;19.39;61.54
55538;BME280;41383;51.418;7.286;2023-07-13T06:55:53;99909.28;;;19.38;61.07
55538;BME280;41383;51.418;7.286;2023-07-13T06:58:19;99906.06;;;19.44;61.25
55538;BME280;41383;51.418;7.286;2023-07-13T07:00:44;99910.56;;;19.31;61.21
55538;BME280;41383;51.418;7.286;2023-07-13T07:03:10;99921.78;;;19.35;61.33
55538;BME280;41383;51.418;7.286;2023-07-13T07:05:35;99919.69;;;19.32;61.21
55538;BME280;41383;51.418;7.286;2023-07-13T07:08:00;99926.69;;;19.38;61.43
55538;BME280;41383;51.418;7.286;2023-07-13T07:10:30;99921.03;;;19.61;61.26
55538;BME280;41383;51.418;7.286;2023-07-13T07:12:56;99916.00;;;19.63;60.99
55538;BME280;41383;51.418;7.286;2023-07-13T07:15:22;99918.94;;;19.76;60.48
55538;BME280;41383;51.418;7.286;2023-07-13T07:17:47;99928.50;;;19.52;60.62
55538;BME280;41383;51.418;7.286;2023-07-13T07:20:13;99922.84;;;19.75;60.26
55538;BME280;41383;51.418;7.286;2023-07-13T07:22:38;99928.22;;;19.80;60.45
55538;BME280;41383;51.418;7.286;2023-07-13T07:25:04;99930.00;;;19.93;60.05
55538;BME280;41383;51.418;7.286;2023-07-13T07:27:29;99921.88;;;20.06;59.93
55538;BME280;41383;51.418;7.286;2023-07-13T07:29:55;99924.84;;;20.18;59.68
55538;BME280;41383;51.418;7.286;2023-07-13T07:32:22;99921.75;;;20.11;59.52
55538;BME280;41383;51.418;7.286;2023-07-13T07:34:48;99928.41;;;20.10;59.70
55538;BME280;41383;51.418;7.286;2023-07-13T07:37:14;99935.09;;;20.18;59.57
55538;BME280;41383;51.418;7.286;2023-07-13T07:39:39;99924.19;;;20.13;59.33
55538;BME280;41383;51.418;7.286;2023-07-13T07:42:05;99920.28;;;20.23;59.77
55538;BME280;41383;51.418;7.286;2023-07-13T07:44:31;99928.25;;;20.42;59.02
55538;BME280;41383;51.418;7.286;2023-07-13T07:46:57;99925.63;;;20.37;59.02
55538;BME280;41383;51.418;7.286;2023-07-13T07:49:22;99922.53;;;20.47;59.31
55538;BME280;41383;51.418;7.286;2023-07-13T07:51:48;99917.34;;;20.28;59.22
55538;BME280;41383;51.418;7.286;2023-07-13T07:54:13;99926.13;;;20.48;59.09
55538;BME280;41383;51.418;7.286;2023-07-13T07:56:39;99925.31;;;20.47;59.13
55538;BME280;41383;51.418;7.286;2023-07-13T07:59:05;99929.13;;;20.73;59.00
55538;BME280;41383;51.418;7.286;2023-07-13T08:01:30;99929.94;;;20.82;58.43
55538;BME280;41383;51.418;7.286;2023-07-13T08:03:55;99927.31;;;20.95;58.15
55538;BME280;41383;51.418;7.286;2023-07-13T08:06:21;99926.84;;;20.84;58.21
55538;BME280;41383;51.418;7.286;2023-07-13T08:08:47;99935.06;;;20.62;58.25
55538;BME280;41383;51.418;7.286;2023-07-13T08:11:12;99929.03;;;20.51;58.47
55538;BME280;41383;51.418;7.286;2023-07-13T08:13:38;99932.44;;;20.57;58.39
55538;BME280;41383;51.418;7.286;2023-07-13T08:16:06;99936.66;;;20.72;58.07
55538;BME280;41383;51.418;7.286;2023-07-13T08:18:32;99932.88;;;20.77;57.74
55538;BME280;41383;51.418;7.286;2023-07-13T08:20:57;99925.06;;;20.79;58.16
55538;BME280;41383;51.418;7.286;2023-07-13T08:23:24;99918.53;;;20.75;58.04
55538;BME280;41383;51.418;7.286;2023-07-13T08:25:53;99923.56;;;20.91;58.58
55538;BME280;41383;51.418;7.286;2023-07-13T08:28:19;99923.72;;;20.85;58.08
55538;BME280;41383;51.418;7.286;2023-07-13T08:30:45;99925.59;;;20.63;57.95
55538;BME280;41383;51.418;7.286;2023-07-13T08:33:14;99920.34;;;20.71;57.89
55538;BME280;41383;51.418;7.286;2023-07-13T08:35:39;99910.72;;;20.77;58.00
55538;BME280;41383;51.418;7.286;2023-07-13T08:38:05;99921.75;;;21.04;57.82
55538;BME280;41383;51.418;7.286;2023-07-13T08:40:30;99917.22;;;21.29;57.37
55538;BME280;41383;51.418;7.286;2023-07-13T08:42:58;99925.69;;;21.33;56.86
55538;BME280;41383;51.418;7.286;2023-07-13T08:45:42;99923.66;;;21.12;56.17
55538;BME280;41383;51.418;7.286;2023-07-13T08:48:11;99919.31;;;21.02;56.84
55538;BME280;41383;51.418;7.286;2023-07-13T08:50:55;99914.09;;;21.01;56.75
55538;BME280;41383;51.418;7.286;2023-07-13T08:53:23;99921.56;;;21.09;57.22
55538;BME280;41383;51.418;7.286;2023-07-13T08:55:57;99922.31;;;21.27;56.91
55538;BME280;41383;51.418;7.286;2023-07-13T08:58:25;99916.91;;;21.31;56.63
55538;BME280;41383;51.418;7.286;2023-07-13T09:04:15;99918.34;;;21.58;56.28
55538;BME280;41383;51.418;7.286;2023-07-13T09:06:55;99917.94;;;21.48;55.36
55538;BME280;41383;51.418;7.286;2023-07-13T09:12:08;99916.91;;;21.52;55.37
55538;BME280;41383;51.418;7.286;2023-07-13T09:14:54;99921.25;;;21.62;54.77
55538;BME280;41383;51.418;7.286;2023-07-13T09:17:24;99914.66;;;21.76;54.83
55538;BME280;41383;51.418;7.286;2023-07-13T09:19:59;99916.91;;;22.04;54.83
55538;BME280;41383;51.418;7.286;2023-07-13T09:22:28;99918.25;;;22.19;54.41
55538;BME280;41383;51.418;7.286;2023-07-13T09:25:45;99909.81;;;21.94;54.15
55538;BME280;41383;51.418;7.286;2023-07-13T09:27:46;99919.84;;;21.86;54.12
55538;BME280;41383;51.418;7.286;2023-07-13T09:32:44;99928.00;;;22.25;53.67
55538;BME280;41383;51.418;7.286;2023-07-13T09:35:15;99919.56;;;22.00;53.96
55538;BME280;41383;51.418;7.286;2023-07-13T09:37:43;99922.41;;;21.91;53.73
55538;BME280;41383;51.418;7.286;2023-07-13T09:40:24;99920.56;;;21.74;53.35
55538;BME280;41383;51.418;7.286;2023-07-13T09:42:52;99922.78;;;21.81;54.05
55538;BME280;41383;51.418;7.286;2023-07-13T09:45:27;99921.00;;;22.07;54.29
55538;BME280;41383;51.418;7.286;2023-07-13T09:47:59;99928.97;;;22.08;54.26
55538;BME280;41383;51.418;7.286;2023-07-13T09:50:28;99925.50;;;22.11;54.02
55538;BME280;41383;51.418;7.286;2023-07-13T09:52:54;99917.69;;;22.26;53.61
55538;BME280;41383;51.418;7.286;2023-07-13T09:55:30;99913.69;;;22.36;53.49
55538;BME280;41383;51.418;7.286;2023-07-13T09:57:57;99924.38;;;22.46;53.58
55538;BME280;41383;51.418;7.286;2023-07-13T10:00:26;99915.63;;;22.35;52.90
55538;BME280;41383;51.418;7.286;2023-07-13T10:03:23;99916.94;;;22.38;53.39
55538;BME280;41383;51.418;7.286;2023-07-13T10:05:51;99924.19;;;22.64;52.95
55538;BME280;41383;51.418;7.286;2023-07-13T10:08:28;99924.63;;;22.54;52.30
55538;BME280;41383;51.418;7.286;2023-07-13T10:11:00;99927.66;;;22.61;52.75
55538;BME280;41383;51.418;7.286;2023-07-13T10:13:33;99936.00;;;22.27;53.38
55538;BME280;41383;51.418;7.286;2023-07-13T10:16:02;99933.63;;;22.16;54.17
55538;BME280;41383;51.418;7.286;2023-07-13T10:18:33;99927.19;;;22.59;53.45
55538;BME280;41383;51.418;7.286;2023-07-13T10:21:13;99929.69;;;22.39;52.45
55538;BME280;41383;51.418;7.286;2023-07-13T10:23:40;99943.28;;;22.32;52.98
55538;BME280;41383;51.418;7.286;2023-07-13T10:26:13;99941.16;;;22.50;52.48
55538;BME280;41383;51.418;7.286;2023-07-13T10:28:40;99938.41;;;22.84;52.11
55538;BME280;41383;51.418;7.286;2023-07-13T10:31:12;99934.22;;;23.03;51.68
55538;BME280;41383;51.418;7.286;2023-07-13T10:33:38;99934.78;;;22.83;51.84
55538;BME280;41383;51.418;7.286;2023-07-13T10:38:41;99940.84;;;22.51;52.40
55538;BME280;41383;51.418;7.286;2023-07-13T10:41:17;99945.06;;;22.70;52.62
55538;BME280;41383;51.418;7.286;2023-07-13T10:43:47;99940.28;;;23.17;52.12
55538;BME280;41383;51.418;7.286;2023-07-13T10:46:17;99943.56;;;23.44;51.17
55538;BME280;41383;51.418;7.286;2023-07-13T10:48:47;99943.50;;;23.07;51.65
55538;BME280;41383;51.418;7.286;2023-07-13T10:51:17;99955.34;;;23.29;50.56
55538;BME280;41383;51.418;7.286;2023-07-13T10:53:42;99946.53;;;23.14;51.01
55538;BME280;41383;51.418;7.286;2023-07-13T10:56:30;99956.72;;;23.10;50.42
55538;BME280;41383;51.418;7.286;2023-07-13T10:59:15;99954.84;;;23.02;50.47
55538;BME280;41383;51.418;7.286;2023-07-13T11:01:55;99965.44;;;22.74;50.53
55538;BME280;41383;51.418;7.286;2023-07-13T11:04:22;99955.50;;;22.73;51.09
55538;BME280;41383;51.418;7.286;2023-07-13T11:06:52;99963.88;;;22.86;51.10
55538;BME280;41383;51.418;7.286;2023-07-13T11:09:36;99969.19;;;22.57;50.72
55538;BME280;41383;51.418;7.286;2023-07-13T11:12:08;99960.41;;;22.55;51.04
55538;BME280;41383;51.418;7.286;2023-07-13T11:14:42;99959.50;;;22.63;50.46
55538;BME280;41383;51.418;7.286;2023-07-13T11:19:52;99963.84;;;22.73;51.02
55538;BME280;41383;51.418;7.286;2023-07-13T11:22:23;99956.31;;;22.86;50.14
55538;BME280;41383;51.418;7.286;2023-07-13T11:27:43;99958.16;;;22.82;50.23
55538;BME280;41383;51.418;7.286;2023-07-13T11:30:31;99964.34;;;23.01;49.95
55538;BME280;41383;51.418;7.286;2023-07-13T11:35:42;99957.44;;;23.32;49.88
55538;BME280;41383;51.418;7.286;2023-07-13T11:38:21;99958.47;;;23.40;48.82
55538;BME280;41383;51.418;7.286;2023-07-13T11:40:48;99955.09;;;23.21;49.31
55538;BME280;41383;51.418;7.286;2023-07-13T11:43:16;99952.69;;;23.32;49.39
55538;BME280;41383;51.418;7.286;2023-07-13T11:45:43;99955.00;;;23.68;48.89
55538;BME280;41383;51.418;7.286;2023-07-13T11:48:23;99950.66;;;23.96;46.99
55538;BME280;41383;51.418;7.286;2023-07-13T11:51:01;99951.63;;;23.75;46.75
55538;BME280;41383;51.418;7.286;2023-07-13T11:53:30;99942.88;;;24.01;45.97
55538;BME280;41383;51.418;7.286;2023-07-13T11:55:57;99950.53;;;23.92;46.23
55538;BME280;41383;51.418;7.286;2023-07-13T11:58:24;99938.91;;;24.02;46.13
55538;BME280;41383;51.418;7.286;2023-07-13T12:00:51;99938.59;;;23.92;46.12
55538;BME280;41383;51.418;7.286;2023-07-13T12:03:21;99944.88;;;23.88;45.92
55538;BME280;41383;51.418;7.286;2023-07-13T12:06:24;99939.28;;;24.01;44.45
55538;BME280;41383;51.418;7.286;2023-07-13T12:08:50;99929.44;;;24.32;44.95
55538;BME280;41383;51.418;7.286;2023-07-13T12:11:17;99929.13;;;24.21;44.83
55538;BME280;41383;51.418;7.286;2023-07-13T12:13:44;99926.47;;;24.12;45.10
55538;BME280;41383;51.418;7.286;2023-07-13T12:16:36;99930.41;;;24.53;44.14
55538;BME280;41383;51.418;7.286;2023-07-13T12:19:03;99932.47;;;24.72;42.82
55538;BME280;41383;51.418;7.286;2023-07-13T12:21:33;99929.50;;;24.65;42.52
55538;BME280;41383;51.418;7.286;2023-07-13T12:23:58;99929.13;;;24.50;42.58
55538;BME280;41383;51.418;7.286;2023-07-13T12:26:24;99930.28;;;24.49;43.16
55538;BME280;41383;51.418;7.286;2023-07-13T12:28:52;99918.09;;;24.86;43.03
55538;BME280;41383;51.418;7.286;2023-07-13T12:33:56;99926.59;;;24.45;43.48
55538;BME280;41383;51.418;7.286;2023-07-13T12:36:22;99922.38;;;24.67;43.52
55538;BME280;41383;51.418;7.286;2023-07-13T12:38:47;99921.16;;;24.81;43.34
55538;BME280;41383;51.418;7.286;2023-07-13T12:41:14;99930.53;;;24.44;42.17
55538;BME280;41383;51.418;7.286;2023-07-13T12:43:40;99935.03;;;24.32;43.38
55538;BME280;41383;51.418;7.286;2023-07-13T12:46:17;99939.63;;;24.41;42.73
55538;BME280;41383;51.418;7.286;2023-07-13T12:48:44;99938.25;;;24.34;43.79
55538;BME280;41383;51.418;7.286;2023-07-13T12:51:13;99934.56;;;24.91;43.80
55538;BME280;41383;51.418;7.286;2023-07-13T12:53:41;99933.19;;;24.53;44.03
55538;BME280;41383;51.418;7.286;2023-07-13T12:56:17;99933.38;;;24.76;43.62
55538;BME280;41383;51.418;7.286;2023-07-13T12:58:46;99940.47;;;24.90;42.92
55538;BME280;41383;51.418;7.286;2023-07-13T13:01:16;99922.56;;;25.03;43.04
55538;BME280;41383;51.418;7.286;2023-07-13T13:03:47;99920.91;;;25.02;41.95
55538;BME280;41383;51.418;7.286;2023-07-13T13:08:46;99924.94;;;24.89;41.28
55538;BME280;41383;51.418;7.286;2023-07-13T13:11:14;99925.75;;;24.73;42.39
55538;BME280;41383;51.418;7.286;2023-07-13T13:13:41;99930.09;;;24.42;42.49
55538;BME280;41383;51.418;7.286;2023-07-13T13:16:12;99923.22;;;24.68;42.03
55538;BME280;41383;51.418;7.286;2023-07-13T13:18:39;99927.38;;;25.06;41.53
55538;BME280;41383;51.418;7.286;2023-07-13T13:21:04;99930.94;;;24.58;42.81
55538;BME280;41383;51.418;7.286;2023-07-13T13:23:30;99936.16;;;24.31;43.03
55538;BME280;41383;51.418;7.286;2023-07-13T13:25:55;99947.13;;;24.11;43.68
55538;BME280;41383;51.418;7.286;2023-07-13T13:28:21;99949.34;;;24.06;43.57
55538;BME280;41383;51.418;7.286;2023-07-13T13:30:48;99953.31;;;23.92;44.29